Flight Track Log - Related Links

Times and Time Zones

All times are in EDT time to prevent confusion due to time zone crossing. See the ASQ6041 flight status page for this flight to view local times or setup timezone preferences in your user account.

Time Position Orientation Groundspeed Altitude Reporting Facility
EDT Latitude Longitude Course Direction KTS MPH feet Rate Location/Type
Sat 11:49:40 AM 36.9078 -76.1894 300° West 149 171 900  Level Washington Center
Sat 11:50:58 AM 36.9581 -76.1378 39° Northeast 183 211 4,000 1,813 Climbing Washington Center
Sat 11:51:59 AM 36.9953 -76.1769 320° Northwest 227 261 5,100 541 Climbing Washington Center
Sat 11:53:00 AM 37.0739 -76.5810 302° West  Level FlightAware Approximate
Sat 11:53:00 AM 36.9928 -76.2603 268° West 250 288 5,100  Level Washington Center
Sat 11:54:00 AM 37.1204 -76.6781 300° West  Level FlightAware Approximate
Sat 11:54:01 AM 36.9881 -76.3458 266° West 254 292 5,300  Level Washington Center
Sat 11:54:16 AM 36.9881 -76.3589 270° West 253 291 5,900 2,880 Climbing Washington Center
Sat 11:55:16 AM 37.0064 -76.4372 286° West 236 272 8,900 2,350 Climbing Washington Center
Sat 11:56:16 AM 37.0433 -76.5131 301° West 236 272 10,600 1,100 Climbing Washington Center
Sat 11:57:16 AM 37.0844 -76.5994 301° West 267 307 11,100 700 Climbing Washington Center
Sat 11:58:16 AM 37.1314 -76.7017 300° West 308 354 12,000 950 Climbing Washington Center
Sat 11:59:16 AM 37.1806 -76.8039 301° West 330 380 13,000 950 Climbing Washington Center
Sat 12:00:16 PM 37.2317 -76.9117 301° West 349 402 13,900 950 Climbing Washington Center
Sat 12:01:16 PM 37.2825 -77.0250 299° West 364 419 14,900 1,000 Climbing Washington Center
Sat 12:02:16 PM 37.3436 -77.1383 304° West 364 419 15,900 950 Climbing Washington Center
Sat 12:03:16 PM 37.4258 -77.2211 321° Northwest 364 419 16,800 950 Climbing Washington Center
Sat 12:04:16 PM 37.5361 -77.2547 346° North 378 435 17,800 500 Climbing Washington Center
Sat 12:05:16 PM 37.6503 -77.2889 347° North 390 449 17,800  Level Washington Center
Sat 12:06:16 PM 37.7667 -77.3203 348° North 410 472 17,800  Level Washington Center
Sat 12:07:16 PM 37.8808 -77.3544 347° North 422 486 17,800 -1,450 Level Washington Center
Sat 12:08:16 PM 37.9889 -77.3833 348° North 417 480 14,900 -3,150 Descending Washington Center
Sat 12:09:16 PM 38.0947 -77.4203 345° North 405 466 11,500 -2,450 Descending Washington Center
Sat 12:10:16 PM 38.1967 -77.4358 353° North 384 442 10,000 -850 Descending Washington Center
Sat 12:11:16 PM 38.2806 -77.3983 19° North 340 391 9,800 -550 Descending Washington Center
Sat 12:12:16 PM 38.3617 -77.4081 355° North 315 362 8,900 -1,000 Descending Washington Center
Sat 12:13:16 PM 38.4325 -77.4231 351° North 281 323 7,800 -950 Descending Washington Center
Sat 12:14:16 PM 38.4989 -77.4356 352° North 257 296 7,000 -750 Descending Washington Center
Sat 12:15:16 PM 38.5656 -77.4531 348° North 245 282 6,300 -750 Descending Washington Center
Sat 12:16:16 PM 38.6319 -77.4653 352° North 240 276 5,500 -742 Descending Washington Center
Sat 12:16:53 PM 38.6833 -77.4667 359° North 246 283 5,100 -742 Descending Potomac TRACON
Sat 12:17:53 PM 38.7500 -77.4667 360° North 253 291 4,300 -1,148 Descending Potomac TRACON
Sat 12:18:48 PM 38.8167 -77.4667 360° North 246 283 2,900 -1,527 Descending Potomac TRACON

Login

Don't have an account? Register now (free) for customized features, flight alerts, and more!